Terminal Aerodrome Forecast
Issued by NWS

Home | Current Version | Previous Version | Text Only | Print | Product List | Glossary On
Versions: 1 2 3 4 5 6 7 8 9 10 11 12 13 14 15 16 17 18 19 20 21 22 23 24
000
FTUS44 KOUN 040521
TAFLAW
TAF
KLAW 040521Z 0406/0506 14012KT P6SM SCT250
      TEMPO 0412/0416 BKN015
     FM041600 17014G24KT P6SM BKN035
     FM050000 15013KT P6SM SCT040 BKN100=

USA.gov is the U.S. government's official web portal to all federal, state and local government web resources and services.